x

Sand Key, Fl (sanf1) Weather Station

11:50pm - Fri 20th Jan 2017 All times are CST. -5 hours from GMT.

  • Wind
    13mph, 14mph gusts
  • Air Temp 76°f
  • Sea Pressure 1016.5mb
  • Sand Key, Fl
  • Sand Key, Fl

More Historic Weather Station data

Upgrade to MSW Pro to gain access to the past 30 days of data for over 8000 Wavebouys and Weather Stations around the globe.

Join Pro

Comparision Forecast

View Surf forecast
   
Fri 01/20 11:50pm 13 14 mph 1016.5mb 76f
10:50pm 10 13 mph 1016.6mb 76f
9:50pm 8 9 mph 1016.4mb 76f
8:50pm 5 6 mph 1016.3mb 76f
7:50pm 2 3 mph 1015.9mb 76f
6:50pm 6 7 mph 1015.3mb 76f
5:50pm 5 6 mph 1015.3mb 76f
4:50pm 6 7 mph 1015mb 77f
3:50pm 8 10 mph 1014.9mb 76f
2:50pm 8 11 mph 1014.9mb 76f
1:50pm 9 13 mph 1015.3mb 76f
12:50pm 8 10 mph 1016.2mb 76f
11:50am 9 11 mph 1017.1mb 76f
10:50am 9 11 mph 1017.4mb 76f
9:50am 9 11 mph 1017.3mb 75f
8:50am 9 11 mph 1016.7mb 75f
7:50am 10 13 mph 1016.2mb 75f
6:50am 13 16 mph 1015.8mb 75f
5:50am 10 13 mph 1015.9mb 75f
4:50am 14 15 mph 1015.4mb 75f
3:50am 14 16 mph 1015.2mb 75f
2:50am 14 17 mph 1014.8mb 76f
1:50am 16 18 mph 1014.7mb 76f
12:50am 17 20 mph 1015.2mb 76f
Thu 01/19 11:50pm 16 18 mph 1015.8mb 75f
10:50pm 14 16 mph 1016.6mb 74f
9:50pm 15 20 mph 1016.5mb 74f
8:50pm 13 17 mph 1017mb 74f
7:50pm 14 16 mph 1016.7mb 75f
6:50pm 11 14 mph 1016.6mb 75f
5:50pm 10 13 mph 1016.5mb 75f
4:50pm 11 13 mph 1016.2mb 75f
3:50pm 11 14 mph 1016.3mb 75f
2:50pm 10 13 mph 1016.5mb 75f
1:50pm 10 13 mph 1017.2mb 75f
12:50pm 11 14 mph 1017.8mb 75f
11:50am 10 13 mph 1018.9mb 75f
10:50am 10 14 mph 1019.6mb 74f
9:50am 8 10 mph 1019.6mb 74f
8:50am 10 13 mph 1019.2mb 73f
7:50am 8 9 mph 1019.1mb 74f
6:50am 6 7 mph 1018.7mb 74f
5:50am 9 13 mph 1018mb 74f
4:50am 9 11 mph 1017.9mb 74f
3:50am 9 11 mph 1018.2mb 74f
2:50am 9 11 mph 1018.5mb 74f
1:50am 7 9 mph 1019.1mb 75f
12:50am 10 11 mph 1019.3mb 75f
Wed 01/18 11:50pm 10 14 mph 1019.7mb 75f
10:50pm 11 13 mph 1020.2mb 74f
9:50pm 11 14 mph 1020.7mb 75f
8:50pm 10 13 mph 1020.5mb 75f
7:50pm 8 9 mph 1020.6mb 75f
6:50pm 9 11 mph 1020.2mb 75f
5:50pm 10 11 mph 1020mb 75f
4:50pm 10
mph
1020mb 76f
3:50pm 10 11 mph 1020mb 76f
2:50pm 11 14 mph 1019.8mb 76f
1:50pm 15 17 mph 1020.1mb 76f
12:50pm 15 18 mph 1020.9mb 76f
11:50am 14 16 mph 1022mb 76f
10:50am 15 16 mph 1022.6mb 76f
9:50am 15 17 mph 1022.6mb 76f
8:50am 16 17 mph 1022.3mb 76f
7:50am 18 21 mph 1021.7mb 75f
6:50am 18 21 mph 1021.5mb 75f
5:50am 18 22 mph 1021.1mb 75f
4:50am 20 22 mph 1020.8mb 75f
3:50am 18 22 mph 1021.1mb 75f
2:50am 17 21 mph 1021.5mb 75f
1:50am 17 20 mph 1022.1mb 76f
12:50am 18 21 mph 1022.3mb 76f
Tue 01/17 11:50pm 20 22 mph 1022.6mb 76f
10:50pm 22 26 mph 1022.5mb 76f
9:50pm 20 22 mph 1022.8mb 76f
8:50pm 20 22 mph 1022.8mb 76f
7:50pm 20 22 mph 1022.2mb 76f
6:50pm 21 23 mph 1022mb 76f
5:50pm 22 25 mph 1021.6mb 76f
4:50pm 20 23 mph 1021.2mb 76f
3:50pm 21 22 mph 1021.1mb 76f
2:50pm 22 24 mph 1021.2mb 76f
1:50pm 22 24 mph 1021.5mb 76f
12:50pm 22 25 mph 1022.2mb 76f
11:50am 23 25 mph 1023mb 76f
10:50am 22 24 mph 1023.6mb 76f
9:50am 24 26 mph 1023.2mb 76f
8:50am 24 26 mph 1022.5mb 76f
7:50am 24 26 mph 1022.1mb 76f
6:50am 25 30 mph 1021.5mb 76f